Time;durP1;ratioP1;P1;durP2;ratioP2;P2;SDS_P1;SDS_P2;PMS_P1;PMS_P2;Temp;Humidity;BMP_temperature;BMP_pressure;BME280_temperature;BME280_humidity;BME280_pressure;Samples;Min_cycle;Max_cycle;Signal;HPM_P1;HPM_P2
2024/01/23 00:00:46;;;;;;;23.40;15.10;;;;;;;1.67;84.07;98944.14;226803;1271;22636;-73
2024/01/23 00:05:48;;;;;;;19.60;12.80;;;;;;;1.61;83.79;98935.26;226783;1274;22548;-73
2024/01/23 00:10:52;;;;;;;23.40;15.70;;;;;;;1.54;84.19;98914.70;227036;1274;22563;-74
2024/01/23 00:15:54;;;;;;;20.50;14.40;;;;;;;1.50;84.19;98911.55;226822;1270;22527;-73
2024/01/23 00:20:55;;;;;;;18.80;12.30;;;;;;;1.49;84.31;98908.01;226863;1270;24383;-74
2024/01/23 00:25:59;;;;;;;25.60;16.70;;;;;;;1.48;84.52;98916.73;226939;1274;22593;-73
2024/01/23 00:31:01;;;;;;;22.30;15.10;;;;;;;1.47;84.59;98910.92;226969;1273;22564;-74
2024/01/23 00:36:04;;;;;;;25.40;14.60;;;;;;;1.46;84.52;98917.08;226703;1274;22566;-73
2024/01/23 00:41:06;;;;;;;18.50;13.10;;;;;;;1.44;84.53;98922.82;226758;1274;22541;-74
2024/01/23 00:46:08;;;;;;;23.90;16.10;;;;;;;1.43;84.77;98937.14;226815;1273;22537;-73
2024/01/23 00:51:11;;;;;;;21.20;14.20;;;;;;;1.42;84.73;98950.55;227001;1270;22541;-72
2024/01/23 00:56:13;;;;;;;20.00;13.60;;;;;;;1.41;84.52;98949.98;226767;1273;22731;-72
2024/01/23 01:01:15;;;;;;;22.80;15.50;;;;;;;1.39;84.72;98953.38;226975;1270;22541;-73
2024/01/23 01:06:17;;;;;;;21.80;14.40;;;;;;;1.37;84.52;98959.45;226908;1273;22588;-72
2024/01/23 01:11:21;;;;;;;22.30;14.40;;;;;;;1.36;84.66;98960.06;226793;1273;22550;-74
2024/01/23 01:16:23;;;;;;;23.40;15.50;;;;;;;1.35;84.86;98971.09;226807;1273;22552;-73
2024/01/23 01:21:25;;;;;;;24.70;16.20;;;;;;;1.35;84.90;98978.05;227002;1274;22551;-73
2024/01/23 01:26:27;;;;;;;25.00;17.60;;;;;;;1.33;84.81;98975.13;226926;1271;22568;-72
2024/01/23 01:31:29;;;;;;;27.20;17.10;;;;;;;1.30;85.23;98977.58;226692;1274;24244;-72
2024/01/23 01:36:32;;;;;;;27.40;17.20;;;;;;;1.28;85.53;98976.20;227029;1272;22551;-73
2024/01/23 01:41:34;;;;;;;27.00;16.60;;;;;;;1.26;85.73;98968.19;227000;1271;22579;-73
2024/01/23 01:46:36;;;;;;;27.80;19.00;;;;;;;1.24;85.65;98957.61;226745;1273;22543;-73
2024/01/23 01:51:38;;;;;;;30.70;20.00;;;;;;;1.22;85.67;98954.29;226654;1274;22555;-72
2024/01/23 01:56:41;;;;;;;29.80;19.20;;;;;;;1.21;85.51;98947.45;226848;1273;22635;-73
2024/01/23 02:01:43;;;;;;;30.00;19.80;;;;;;;1.20;85.37;98944.38;226870;1271;22545;-73
2024/01/23 02:06:46;;;;;;;29.20;19.60;;;;;;;1.19;85.42;98945.30;226733;1264;22541;-73
2024/01/23 02:11:57;;;;;;;27.10;18.80;;;;;;;1.17;85.56;98947.23;226716;1273;25373;-72
2024/01/23 02:17:00;;;;;;;30.00;19.70;;;;;;;1.16;85.36;98945.45;226852;1271;22552;-73
2024/01/23 02:22:02;;;;;;;29.30;19.70;;;;;;;1.13;85.39;98941.35;226980;1270;22542;-73
2024/01/23 02:27:04;;;;;;;29.00;19.10;;;;;;;1.08;85.51;98934.94;226659;1273;22588;-73
2024/01/23 02:32:06;;;;;;;26.90;17.20;;;;;;;1.02;85.43;98934.74;226911;1263;22540;-72
2024/01/23 02:37:08;;;;;;;29.80;18.40;;;;;;;0.96;85.46;98923.29;226758;1274;22582;-73
2024/01/23 02:42:10;;;;;;;27.30;18.00;;;;;;;0.91;85.56;98918.45;226881;1272;22570;-73
2024/01/23 02:47:12;;;;;;;29.10;19.00;;;;;;;0.90;85.67;98927.77;226684;1274;22544;-72
2024/01/23 02:52:14;;;;;;;28.80;20.50;;;;;;;0.90;85.82;98947.70;226780;1273;22537;-73
2024/01/23 02:57:16;;;;;;;30.60;20.10;;;;;;;0.92;85.85;98943.02;226997;1267;22554;-73
2024/01/23 03:02:18;;;;;;;28.30;18.90;;;;;;;0.93;85.64;98934.60;226946;1268;22560;-73
2024/01/23 03:07:20;;;;;;;33.40;22.00;;;;;;;0.93;85.69;98929.95;226786;1274;22585;-72
2024/01/23 03:12:23;;;;;;;29.10;19.20;;;;;;;0.93;85.67;98933.94;226764;1266;25078;-73
2024/01/23 03:17:25;;;;;;;30.80;20.60;;;;;;;0.93;86.13;98944.86;226931;1251;22568;-73
2024/01/23 03:22:28;;;;;;;32.70;21.00;;;;;;;0.94;86.05;98942.70;226720;1269;22697;-73
2024/01/23 03:27:30;;;;;;;35.00;22.90;;;;;;;0.93;86.15;98928.05;226950;1271;22551;-73
2024/01/23 03:32:32;;;;;;;35.30;23.00;;;;;;;0.92;86.14;98922.87;226796;1271;25258;-73
2024/01/23 03:37:34;;;;;;;34.20;21.60;;;;;;;0.91;86.22;98931.95;226840;1270;22590;-72
2024/01/23 03:42:36;;;;;;;32.90;21.80;;;;;;;0.92;86.19;98944.08;226840;1274;24302;-73
2024/01/23 03:47:38;;;;;;;31.80;21.30;;;;;;;0.94;86.19;98946.00;226835;1273;22554;-72
2024/01/23 03:52:40;;;;;;;33.70;21.60;;;;;;;0.95;86.07;98951.10;226804;1273;22549;-73
2024/01/23 03:57:44;;;;;;;30.50;19.30;;;;;;;0.93;86.15;98950.06;226723;1273;23038;-73
2024/01/23 04:02:46;;;;;;;35.60;21.20;;;;;;;0.91;86.17;98959.73;226725;1270;22536;-73
2024/01/23 04:07:48;;;;;;;31.90;21.10;;;;;;;0.91;86.32;98964.27;226799;1265;22548;-73
2024/01/23 04:12:50;;;;;;;30.00;20.20;;;;;;;0.90;86.61;98957.92;226710;1270;22529;-73
2024/01/23 04:17:55;;;;;;;35.40;23.40;;;;;;;0.87;86.40;98962.33;226782;1273;22542;-73
2024/01/23 04:22:57;;;;;;;35.40;23.90;;;;;;;0.85;86.65;98962.84;226759;1270;22554;-73
2024/01/23 04:27:59;;;;;;;35.50;22.70;;;;;;;0.85;86.42;98974.16;226649;1274;22555;-73
2024/01/23 04:33:01;;;;;;;36.60;23.50;;;;;;;0.83;86.58;98976.32;226797;1274;22554;-73
2024/01/23 04:38:04;;;;;;;37.50;23.60;;;;;;;0.82;86.68;98975.77;226620;1273;22533;-73
2024/01/23 04:43:06;;;;;;;36.90;24.00;;;;;;;0.79;86.49;98979.66;226901;1268;22540;-73
2024/01/23 04:48:08;;;;;;;36.70;23.70;;;;;;;0.73;86.66;98978.87;226871;1268;22549;-72
2024/01/23 04:53:10;;;;;;;36.50;24.30;;;;;;;0.67;86.85;98986.94;226839;1263;22557;-72
2024/01/23 04:58:12;;;;;;;37.90;25.50;;;;;;;0.60;86.33;98985.98;226902;1271;22552;-73
2024/01/23 05:03:14;;;;;;;39.70;24.70;;;;;;;0.53;86.60;98994.35;226764;1274;22556;-73
2024/01/23 05:08:17;;;;;;;40.90;25.90;;;;;;;0.46;86.81;99002.03;226965;1271;22590;-73
2024/01/23 05:13:19;;;;;;;44.90;27.40;;;;;;;0.40;86.76;99004.40;226889;1273;22917;-73
2024/01/23 05:18:21;;;;;;;41.10;25.50;;;;;;;0.35;87.18;99012.52;226742;1274;22579;-74
2024/01/23 05:23:24;;;;;;;40.90;26.20;;;;;;;0.33;87.21;99002.48;226825;1273;22543;-73
2024/01/23 05:28:26;;;;;;;43.00;26.60;;;;;;;0.30;87.17;99013.92;226807;1270;22571;-73
2024/01/23 05:33:27;;;;;;;41.10;25.20;;;;;;;0.28;87.29;99013.45;226790;1273;23016;-73
2024/01/23 05:38:30;;;;;;;42.10;26.30;;;;;;;0.25;87.33;99021.42;226808;1274;22573;-73
2024/01/23 05:43:31;;;;;;;47.20;29.00;;;;;;;0.22;87.20;99020.10;226831;1272;22586;-73
2024/01/23 05:48:34;;;;;;;48.70;28.90;;;;;;;0.20;87.34;99025.95;226779;1273;22539;-73
2024/01/23 05:53:36;;;;;;;51.80;30.50;;;;;;;0.21;87.55;99022.77;226929;1271;22543;-73
2024/01/23 05:58:38;;;;;;;41.60;25.00;;;;;;;0.21;87.38;99020.89;226713;1274;22557;-73
2024/01/23 06:03:40;;;;;;;49.10;28.90;;;;;;;0.18;87.26;99024.08;226715;1273;22597;-72
2024/01/23 06:08:42;;;;;;;52.40;30.70;;;;;;;0.15;87.61;99025.85;226740;1273;24414;-73
2024/01/23 06:13:44;;;;;;;48.20;30.30;;;;;;;0.13;87.46;99031.58;226923;1271;22571;-72
2024/01/23 06:18:46;;;;;;;55.20;34.50;;;;;;;0.09;87.56;99031.00;226943;1268;22643;-72
2024/01/23 06:23:48;;;;;;;46.10;29.00;;;;;;;0.05;87.62;99036.72;226843;1272;22724;-73
2024/01/23 06:28:50;;;;;;;51.30;31.70;;;;;;;0.01;87.81;99044.39;226780;1273;22543;-73
2024/01/23 06:33:53;;;;;;;53.80;30.90;;;;;;;0.00;87.55;99049.14;226724;1274;24225;-73
2024/01/23 06:38:55;;;;;;;49.80;30.90;;;;;;;0.00;87.95;99052.09;226884;1270;22550;-72
2024/01/23 06:43:57;;;;;;;54.20;33.40;;;;;;;0.01;87.99;99050.96;226749;1267;22584;-73
2024/01/23 06:48:59;;;;;;;45.70;27.50;;;;;;;0.02;87.86;99062.02;226783;1262;22651;-73
2024/01/23 06:54:02;;;;;;;61.90;38.80;;;;;;;0.05;87.94;99071.99;226833;1270;22671;-73
2024/01/23 06:59:09;;;;;;;43.30;26.20;;;;;;;0.09;88.12;99089.32;226754;1266;22543;-74
2024/01/23 07:04:11;;;;;;;45.10;26.90;;;;;;;0.17;88.19;99092.88;226658;1259;25390;-75
2024/01/23 07:09:13;;;;;;;45.10;27.30;;;;;;;0.27;88.31;99098.01;226502;1264;23152;-73
2024/01/23 07:14:15;;;;;;;43.40;25.60;;;;;;;0.38;88.36;99108.80;226692;1259;22546;-73
2024/01/23 07:19:17;;;;;;;40.40;26.00;;;;;;;0.50;88.30;99118.29;226670;1273;22559;-73
2024/01/23 07:24:23;;;;;;;38.80;24.00;;;;;;;0.68;88.64;99122.14;226629;1268;22564;-73
2024/01/23 07:29:25;;;;;;;42.10;25.00;;;;;;;0.85;88.47;99136.59;226530;1259;22579;-73
2024/01/23 07:34:27;;;;;;;39.40;23.80;;;;;;;1.02;88.39;99149.14;226622;1274;25686;-73
2024/01/23 07:39:29;;;;;;;34.90;21.80;;;;;;;1.15;88.05;99159.08;226528;1271;25259;-73
2024/01/23 07:44:37;;;;;;;37.10;23.40;;;;;;;1.24;87.98;99167.33;226574;1270;22533;-73
2024/01/23 07:49:39;;;;;;;36.10;20.90;;;;;;;1.33;87.82;99170.27;226416;1266;22682;-74
2024/01/23 07:54:44;;;;;;;37.70;22.10;;;;;;;1.44;87.85;99175.33;226249;1254;22667;-74
2024/01/23 07:59:46;;;;;;;37.20;22.10;;;;;;;1.56;87.81;99182.52;226418;1268;22554;-72
2024/01/23 08:04:47;;;;;;;39.10;22.50;;;;;;;1.76;87.60;99176.00;226502;1255;22536;-73
2024/01/23 08:09:50;;;;;;;32.30;20.80;;;;;;;2.01;87.61;99183.36;226596;1267;23758;-74
2024/01/23 08:14:53;;;;;;;33.40;18.90;;;;;;;2.21;87.27;99190.68;226452;1256;22555;-74
2024/01/23 08:19:54;;;;;;;33.80;21.30;;;;;;;2.25;86.82;99190.29;226580;1270;22543;-74
2024/01/23 08:24:57;;;;;;;32.30;20.10;;;;;;;2.33;86.58;99198.20;226745;1271;22543;-73
2024/01/23 08:29:58;;;;;;;33.80;18.70;;;;;;;2.41;86.44;99208.13;226850;1257;22543;-74
2024/01/23 08:35:01;;;;;;;36.70;20.00;;;;;;;2.55;86.44;99200.16;226592;1270;22539;-74
2024/01/23 08:40:06;;;;;;;33.30;19.70;;;;;;;2.67;86.23;99202.79;226585;1256;22554;-74
2024/01/23 08:45:08;;;;;;;35.20;18.30;;;;;;;2.76;86.05;99203.81;226346;1262;423994;-74
2024/01/23 08:50:10;;;;;;;33.40;18.90;;;;;;;2.83;85.85;99211.55;226259;1255;22547;-74
2024/01/23 08:55:12;;;;;;;30.90;18.50;;;;;;;2.94;85.67;99215.31;226498;1267;24430;-74
2024/01/23 09:00:15;;;;;;;27.80;16.60;;;;;;;3.07;85.46;99215.45;225804;1258;22536;-73
2024/01/23 09:05:17;;;;;;;28.50;17.40;;;;;;;3.17;85.29;99220.46;226184;1264;22969;-75
2024/01/23 09:10:19;;;;;;;33.00;18.80;;;;;;;3.25;84.91;99224.70;226023;1256;22593;-74
2024/01/23 09:15:21;;;;;;;29.00;17.40;;;;;;;3.30;84.64;99229.31;226031;1268;22578;-74
2024/01/23 09:20:24;;;;;;;27.80;17.00;;;;;;;3.32;84.46;99240.27;225852;1259;25337;-74
2024/01/23 09:25:26;;;;;;;27.30;17.00;;;;;;;3.33;84.39;99243.85;226050;1262;22750;-74
2024/01/23 09:30:28;;;;;;;26.10;16.60;;;;;;;3.35;84.19;99247.84;226292;1266;24176;-74
2024/01/23 09:35:30;;;;;;;30.50;18.70;;;;;;;3.34;84.22;99258.42;226362;1262;22559;-74
2024/01/23 09:40:33;;;;;;;28.80;17.50;;;;;;;3.27;84.01;99267.81;226585;1254;22554;-74
2024/01/23 09:45:38;;;;;;;31.60;18.40;;;;;;;3.21;84.08;99272.21;226392;1274;22552;-74
2024/01/23 09:50:42;;;;;;;32.80;20.00;;;;;;;3.17;84.04;99284.16;226518;1251;22557;-73
2024/01/23 09:55:44;;;;;;;34.10;19.80;;;;;;;3.22;84.32;99289.21;226443;1255;22561;-74
2024/01/23 10:00:46;;;;;;;29.10;17.60;;;;;;;3.35;84.24;99282.86;226398;1262;22576;-74
2024/01/23 10:05:49;;;;;;;31.70;18.60;;;;;;;3.43;84.02;99287.23;226296;1258;25297;-75
2024/01/23 10:11:01;;;;;;;29.20;18.20;;;;;;;3.49;83.91;99287.52;226148;1266;22590;-75
2024/01/23 10:16:04;;;;;;;33.90;20.10;;;;;;;3.52;83.82;99290.27;226011;1271;22549;-76
2024/01/23 10:21:06;;;;;;;32.40;19.00;;;;;;;3.52;83.66;99291.16;226098;1266;22550;-75
2024/01/23 10:26:08;;;;;;;34.90;21.50;;;;;;;3.51;83.58;99297.52;226109;1256;22550;-74
2024/01/23 10:31:11;;;;;;;34.30;20.60;;;;;;;3.46;83.48;99301.58;226338;1268;22561;-74
2024/01/23 10:36:14;;;;;;;34.00;19.70;;;;;;;3.47;83.56;99306.52;226093;1262;22512;-75
2024/01/23 10:41:21;;;;;;;31.50;19.00;;;;;;;3.59;83.42;99303.92;226084;1266;22547;-75
2024/01/23 10:46:24;;;;;;;31.10;18.90;;;;;;;3.69;83.23;99308.16;226143;1267;22549;-74
2024/01/23 10:51:32;;;;;;;33.30;19.30;;;;;;;3.87;83.23;99307.83;226545;1267;22580;-74
2024/01/23 10:56:42;;;;;;;34.60;20.80;;;;;;;4.05;83.17;99311.96;226423;1267;22925;-75
2024/01/23 11:01:45;;;;;;;32.70;19.40;;;;;;;4.14;82.82;99311.00;226585;1266;23107;-74
2024/01/23 11:06:55;;;;;;;33.20;19.40;;;;;;;4.22;82.62;99319.31;226421;1251;24232;-74
2024/01/23 11:12:11;;;;;;;31.20;19.60;;;;;;;4.27;82.47;99323.66;226337;1271;27300;-74
2024/01/23 11:17:14;;;;;;;28.50;18.00;;;;;;;4.31;82.18;99326.05;226342;1263;23209;-74
2024/01/23 11:22:22;;;;;;;29.80;18.80;;;;;;;4.36;82.30;99342.86;226238;1262;22555;-75
2024/01/23 11:27:28;;;;;;;29.20;17.90;;;;;;;4.44;81.90;99339.91;226420;1258;22556;-75
2024/01/23 11:32:30;;;;;;;28.50;18.10;;;;;;;4.48;81.89;99344.26;226558;1262;22533;-75
2024/01/23 11:37:43;;;;;;;28.50;17.80;;;;;;;4.53;81.96;99357.58;226551;1271;22576;-78
2024/01/23 11:42:46;;;;;;;30.90;19.30;;;;;;;4.63;81.94;99358.48;226487;1260;22569;-76
2024/01/23 11:47:56;;;;;;;31.20;19.70;;;;;;;4.77;81.80;99350.10;226076;1274;24229;-78
2024/01/23 11:52:59;;;;;;;31.10;19.40;;;;;;;5.02;81.84;99339.02;226096;1259;22542;-77
2024/01/23 11:58:01;;;;;;;29.60;17.70;;;;;;;5.20;81.55;99325.52;226321;1267;22546;-75
2024/01/23 12:03:10;;;;;;;28.90;18.80;;;;;;;5.17;81.17;99328.77;226298;1271;24942;-74
2024/01/23 12:08:12;;;;;;;29.40;18.40;;;;;;;5.21;81.39;99329.11;226492;1268;22546;-74
2024/01/23 12:13:14;;;;;;;28.40;17.30;;;;;;;5.33;81.42;99337.30;226378;1268;22526;-74
2024/01/23 12:18:20;;;;;;;23.90;15.90;;;;;;;5.46;80.64;99336.95;226308;1269;22542;-74
2024/01/23 12:23:24;;;;;;;23.30;14.80;;;;;;;5.56;80.21;99341.61;226405;1256;23304;-75
2024/01/23 12:28:29;;;;;;;23.20;14.60;;;;;;;5.63;80.30;99332.33;226275;1262;22554;-76
2024/01/23 12:33:31;;;;;;;27.10;15.90;;;;;;;5.69;80.03;99333.56;226204;1267;22536;-79
2024/01/23 12:38:34;;;;;;;25.20;16.20;;;;;;;5.71;79.41;99345.14;226239;1265;22555;-76
2024/01/23 12:43:37;;;;;;;24.10;15.20;;;;;;;5.72;79.38;99344.07;226135;1272;22554;-75
2024/01/23 12:48:41;;;;;;;23.20;14.20;;;;;;;5.75;78.78;99358.83;226347;1272;22566;-75
2024/01/23 12:53:44;;;;;;;22.30;14.50;;;;;;;5.71;78.48;99368.13;227487;1262;22580;-75
2024/01/23 12:58:46;;;;;;;23.60;14.60;;;;;;;5.63;78.61;99374.98;226214;1260;22543;-74
2024/01/23 13:03:50;;;;;;;27.80;16.60;;;;;;;5.58;78.53;99378.77;226118;1274;22539;-76
2024/01/23 13:08:52;;;;;;;25.60;17.70;;;;;;;5.49;78.41;99383.30;226357;1266;22653;-75
2024/01/23 13:13:55;;;;;;;30.50;19.10;;;;;;;5.39;78.59;99402.21;226545;1253;22547;-75
2024/01/23 13:18:57;;;;;;;30.70;19.60;;;;;;;5.28;78.78;99407.40;226581;1273;23114;-75
2024/01/23 13:24:00;;;;;;;33.50;20.80;;;;;;;5.10;78.42;99414.80;226519;1262;22554;-75
2024/01/23 13:29:03;;;;;;;31.60;19.80;;;;;;;4.91;79.04;99420.69;226397;1271;22547;-76
2024/01/23 13:34:13;;;;;;;33.20;21.00;;;;;;;4.80;79.25;99448.58;226503;1255;22554;-75
2024/01/23 13:39:18;;;;;;;32.30;21.00;;;;;;;4.68;79.30;99449.94;226416;1267;22549;-77
2024/01/23 13:44:23;;;;;;;24.00;13.80;;;;;;;4.62;79.56;99455.00;226653;1268;22708;-76
2024/01/23 13:49:25;;;;;;;16.60;10.80;;;;;;;4.58;79.43;99454.00;226231;1251;22591;-76
2024/01/23 13:54:27;;;;;;;16.00;9.80;;;;;;;4.56;79.75;99450.83;226200;1271;22544;-75
2024/01/23 13:59:29;;;;;;;16.80;10.70;;;;;;;4.55;79.75;99468.70;226481;1253;22573;-75
2024/01/23 14:04:30;;;;;;;15.50;9.80;;;;;;;4.52;79.66;99468.13;226238;1256;22569;-74
2024/01/23 14:09:33;;;;;;;20.70;12.00;;;;;;;4.48;79.52;99469.00;226212;1260;22558;-74
2024/01/23 14:14:36;;;;;;;27.80;17.20;;;;;;;4.45;80.05;99469.25;225879;1268;22566;-76
2024/01/23 14:19:38;;;;;;;31.10;17.90;;;;;;;4.38;79.60;99469.67;226499;1258;22601;-76
2024/01/23 14:24:40;;;;;;;26.10;16.90;;;;;;;4.32;79.74;99468.48;226556;1271;23589;-76
2024/01/23 14:29:44;;;;;;;27.80;16.20;;;;;;;4.26;79.99;99473.31;226593;1258;22560;-75
2024/01/23 14:34:46;;;;;;;24.60;15.40;;;;;;;4.20;80.21;99480.41;226552;1266;22605;-74
2024/01/23 14:39:49;;;;;;;29.10;16.60;;;;;;;4.14;80.29;99486.58;226597;1266;22540;-76
2024/01/23 14:44:53;;;;;;;27.60;17.00;;;;;;;4.07;80.05;99503.02;226563;1268;24271;-77
2024/01/23 14:49:55;;;;;;;28.70;17.60;;;;;;;3.99;80.27;99506.44;226549;1270;24399;-76
2024/01/23 14:54:57;;;;;;;29.60;16.70;;;;;;;3.94;80.40;99517.20;226395;1259;22542;-76
2024/01/23 15:00:05;;;;;;;30.80;18.10;;;;;;;3.87;80.31;99519.63;226377;1271;22569;-75
2024/01/23 15:05:07;;;;;;;29.60;17.30;;;;;;;3.81;80.43;99530.24;225991;1274;22567;-74
2024/01/23 15:10:10;;;;;;;30.30;16.10;;;;;;;3.77;80.37;99536.91;226132;1259;22558;-75
2024/01/23 15:15:13;;;;;;;30.00;16.80;;;;;;;3.71;80.63;99542.77;226476;1256;22554;-75
2024/01/23 15:20:18;;;;;;;26.40;15.70;;;;;;;3.66;80.70;99554.54;226625;1260;22556;-75
2024/01/23 15:25:21;;;;;;;29.40;17.70;;;;;;;3.62;80.76;99565.84;226544;1271;22579;-75
2024/01/23 15:30:24;;;;;;;26.10;15.60;;;;;;;3.60;80.81;99572.98;226689;1271;23289;-75
2024/01/23 15:35:27;;;;;;;27.50;15.80;;;;;;;3.58;80.77;99586.51;226778;1273;24380;-75
2024/01/23 15:40:29;;;;;;;26.50;15.20;;;;;;;3.59;80.65;99594.30;226918;1270;22564;-75
2024/01/23 15:45:33;;;;;;;24.90;13.90;;;;;;;3.60;80.79;99610.75;226986;1274;22550;-75
2024/01/23 15:50:35;;;;;;;31.50;17.10;;;;;;;3.62;80.47;99623.13;226874;1272;22565;-74
2024/01/23 15:55:37;;;;;;;35.40;18.00;;;;;;;3.61;80.27;99631.58;226837;1274;22552;-74
2024/01/23 16:00:40;;;;;;;32.80;17.70;;;;;;;3.60;80.33;99639.11;226944;1273;22563;-75
2024/01/23 16:05:42;;;;;;;35.60;19.90;;;;;;;3.58;80.44;99647.98;226770;1274;22547;-75
2024/01/23 16:10:44;;;;;;;37.40;19.90;;;;;;;3.57;80.38;99647.08;226788;1274;22555;-75
2024/01/23 16:15:50;;;;;;;39.30;20.20;;;;;;;3.55;80.44;99655.44;226592;1273;22560;-77
2024/01/23 16:20:52;;;;;;;38.20;20.80;;;;;;;3.49;80.52;99654.84;226795;1273;22625;-80
2024/01/23 16:25:56;;;;;;;43.50;23.70;;;;;;;3.44;80.56;99658.57;226873;1274;24145;-77
2024/01/23 16:31:01;;;;;;;40.40;21.60;;;;;;;3.37;80.81;99656.48;226824;1274;22545;-75
2024/01/23 16:36:03;;;;;;;41.70;22.40;;;;;;;3.34;80.87;99656.76;226745;1272;22547;-76
2024/01/23 16:41:06;;;;;;;37.90;22.30;;;;;;;3.29;80.87;99666.04;226755;1274;25425;-76
2024/01/23 16:46:08;;;;;;;36.80;20.80;;;;;;;3.24;81.15;99681.02;226735;1274;22547;-76
2024/01/23 16:51:10;;;;;;;33.20;18.40;;;;;;;3.21;81.03;99682.13;226763;1274;25954;-76
2024/01/23 16:56:12;;;;;;;30.30;16.20;;;;;;;3.19;81.18;99683.30;226782;1270;22557;-76
2024/01/23 17:01:16;;;;;;;24.20;14.70;;;;;;;3.21;81.24;99679.49;226766;1274;22934;-76
2024/01/23 17:06:19;;;;;;;25.80;15.20;;;;;;;3.22;81.21;99677.36;226742;1274;22570;-75
2024/01/23 17:11:22;;;;;;;31.50;17.20;;;;;;;3.19;81.30;99689.05;226853;1273;22563;-75
2024/01/23 17:16:24;;;;;;;41.30;19.70;;;;;;;3.16;81.50;99695.73;226819;1274;22705;-76
2024/01/23 17:21:27;;;;;;;27.00;14.60;;;;;;;3.15;81.44;99697.17;226788;1273;22560;-75
2024/01/23 17:26:32;;;;;;;23.90;12.80;;;;;;;3.16;81.47;99705.50;226678;1274;22554;-75
2024/01/23 17:31:36;;;;;;;19.70;11.30;;;;;;;3.17;81.71;99712.55;226789;1273;22545;-75
2024/01/23 17:36:39;;;;;;;18.50;10.90;;;;;;;3.17;81.80;99721.93;226673;1274;25275;-75
2024/01/23 17:41:42;;;;;;;22.60;11.70;;;;;;;3.20;81.60;99734.94;226765;1272;22538;-75
2024/01/23 17:46:45;;;;;;;21.50;10.40;;;;;;;3.24;81.79;99735.33;226746;1274;22574;-76
2024/01/23 17:51:49;;;;;;;20.00;10.20;;;;;;;3.28;81.65;99740.61;226807;1274;22588;-75
2024/01/23 17:56:55;;;;;;;13.80;7.60;;;;;;;3.30;81.56;99741.44;226686;1274;22562;-76
2024/01/23 18:01:57;;;;;;;14.80;7.70;;;;;;;3.33;81.55;99742.98;226840;1274;22540;-75
2024/01/23 18:07:01;;;;;;;14.10;6.60;;;;;;;3.34;81.66;99757.71;226783;1274;22564;-76
2024/01/23 18:12:07;;;;;;;13.10;6.90;;;;;;;3.34;81.65;99752.98;226903;1274;25301;-74
2024/01/23 18:17:14;;;;;;;13.90;6.90;;;;;;;3.34;81.35;99754.05;226829;1272;22543;-74
2024/01/23 18:22:16;;;;;;;15.00;6.70;;;;;;;3.33;81.44;99758.49;226839;1274;22551;-76
2024/01/23 18:27:19;;;;;;;13.00;6.80;;;;;;;3.31;81.51;99763.00;226765;1273;22573;-76
2024/01/23 18:32:23;;;;;;;12.60;6.30;;;;;;;3.31;81.34;99759.34;226928;1274;22561;-75
2024/01/23 18:37:27;;;;;;;14.70;6.10;;;;;;;3.31;81.22;99757.92;226922;1274;22547;-76
2024/01/23 18:42:32;;;;;;;13.50;7.00;;;;;;;3.32;81.37;99760.50;226694;1270;22589;-75
2024/01/23 18:47:36;;;;;;;15.40;6.70;;;;;;;3.32;81.30;99757.85;226813;1274;22563;-76
2024/01/23 18:52:38;;;;;;;14.00;7.10;;;;;;;3.33;81.32;99767.16;226811;1274;23128;-75
2024/01/23 18:57:40;;;;;;;13.70;6.50;;;;;;;3.36;81.40;99769.42;226931;1274;22710;-75
2024/01/23 19:02:43;;;;;;;12.50;6.10;;;;;;;3.37;81.24;99771.21;226743;1273;22537;-74
2024/01/23 19:07:46;;;;;;;12.80;6.10;;;;;;;3.40;81.13;99774.18;226902;1270;22559;-75
2024/01/23 19:12:48;;;;;;;17.10;7.60;;;;;;;3.41;80.92;99779.44;226836;1273;22571;-75
2024/01/23 19:17:51;;;;;;;16.00;8.50;;;;;;;3.38;80.94;99777.05;226828;1271;23623;-75
2024/01/23 19:22:55;;;;;;;19.00;7.60;;;;;;;3.35;81.02;99774.31;226767;1273;22543;-75
2024/01/23 19:27:58;;;;;;;14.40;6.40;;;;;;;3.34;81.05;99773.70;226910;1274;22546;-74
2024/01/23 19:33:00;;;;;;;11.40;5.60;;;;;;;3.34;81.00;99779.81;226848;1272;22574;-76
2024/01/23 19:38:05;;;;;;;17.20;7.50;;;;;;;3.33;81.15;99776.96;226940;1274;22549;-75
2024/01/23 19:43:08;;;;;;;16.50;7.20;;;;;;;3.31;81.04;99781.77;226759;1274;22589;-75
2024/01/23 19:48:10;;;;;;;14.40;6.20;;;;;;;3.31;81.01;99785.95;226992;1274;22558;-75
2024/01/23 19:53:14;;;;;;;17.10;6.80;;;;;;;3.32;80.99;99785.02;226808;1270;22543;-75
2024/01/23 19:58:17;;;;;;;17.40;6.70;;;;;;;3.32;80.87;99788.50;226859;1274;22576;-74
2024/01/23 20:03:21;;;;;;;19.10;7.60;;;;;;;3.31;80.85;99787.36;226768;1274;22541;-75
2024/01/23 20:08:24;;;;;;;15.70;7.20;;;;;;;3.30;80.90;99781.13;226821;1274;22551;-75
2024/01/23 20:13:27;;;;;;;15.80;6.80;;;;;;;3.29;80.83;99783.67;226937;1274;22569;-76
2024/01/23 20:18:29;;;;;;;25.60;8.90;;;;;;;3.30;80.87;99785.00;226988;1273;22537;-76
2024/01/23 20:23:32;;;;;;;13.30;5.50;;;;;;;3.31;80.78;99791.70;226736;1274;23290;-75
2024/01/23 20:28:34;;;;;;;9.70;4.60;;;;;;;3.30;80.91;99790.95;226944;1273;22677;-75
2024/01/23 20:33:43;;;;;;;13.90;5.20;;;;;;;3.30;80.93;99786.21;226764;1270;24278;-76
2024/01/23 20:38:45;;;;;;;14.90;5.90;;;;;;;3.29;80.84;99790.31;226831;1273;22555;-76
2024/01/23 20:43:48;;;;;;;14.60;6.00;;;;;;;3.21;80.83;99796.64;226704;1274;175520;-74
2024/01/23 20:48:51;;;;;;;14.90;6.50;;;;;;;3.11;80.55;99786.94;226887;1270;22540;-74
2024/01/23 20:53:53;;;;;;;15.00;6.90;;;;;;;2.97;80.57;99788.57;226989;1273;22562;-75
2024/01/23 20:58:55;;;;;;;17.90;7.30;;;;;;;2.80;80.93;99792.61;226728;1274;25253;-75
2024/01/23 21:03:59;;;;;;;18.00;7.80;;;;;;;2.66;80.83;99790.36;226896;1267;22642;-75
2024/01/23 21:09:02;;;;;;;15.20;7.20;;;;;;;2.51;80.98;99795.80;226921;1273;22549;-75
2024/01/23 21:14:06;;;;;;;16.70;7.60;;;;;;;2.40;81.18;99799.05;226743;1253;22553;-74
2024/01/23 21:19:15;;;;;;;15.40;6.10;;;;;;;2.29;81.37;99802.30;226952;1267;22589;-74
2024/01/23 21:24:19;;;;;;;17.60;7.60;;;;;;;2.19;81.47;99810.46;226856;1270;23143;-75
2024/01/23 21:29:21;;;;;;;15.60;6.50;;;;;;;2.16;81.69;99814.03;226813;1270;23201;-75
2024/01/23 21:34:23;;;;;;;18.20;6.90;;;;;;;2.19;81.90;99802.66;226862;1274;22548;-75
2024/01/23 21:39:27;;;;;;;18.70;8.20;;;;;;;2.24;81.91;99796.70;226974;1274;22542;-74
2024/01/23 21:44:31;;;;;;;20.00;8.50;;;;;;;2.27;81.86;99793.71;226791;1272;23434;-75
2024/01/23 21:49:34;;;;;;;17.00;7.10;;;;;;;2.28;81.79;99787.41;226959;1268;25294;-75
2024/01/23 21:54:36;;;;;;;19.40;8.10;;;;;;;2.29;81.94;99781.48;226950;1270;22536;-75
2024/01/23 21:59:38;;;;;;;18.00;8.10;;;;;;;2.28;81.89;99780.97;226934;1268;22718;-75
2024/01/23 22:04:40;;;;;;;20.90;9.20;;;;;;;2.27;81.83;99782.13;226744;1273;22544;-76
2024/01/23 22:09:43;;;;;;;20.70;8.50;;;;;;;2.26;81.84;99765.81;226844;1273;22542;-75
2024/01/23 22:14:45;;;;;;;21.90;9.80;;;;;;;2.22;81.83;99766.63;226748;1267;22555;-75
2024/01/23 22:19:47;;;;;;;19.80;8.80;;;;;;;2.16;81.64;99759.46;226907;1270;25425;-75
2024/01/23 22:24:49;;;;;;;22.00;9.20;;;;;;;2.13;81.94;99760.34;226838;1268;22640;-75
2024/01/23 22:29:51;;;;;;;23.40;10.00;;;;;;;2.16;81.96;99757.52;226794;1270;22551;-75
2024/01/23 22:34:53;;;;;;;22.10;9.60;;;;;;;2.21;81.97;99750.55;226905;1271;22546;-75
2024/01/23 22:39:55;;;;;;;28.50;12.40;;;;;;;2.22;81.84;99741.84;226807;1273;25337;-75
2024/01/23 22:44:58;;;;;;;30.40;12.70;;;;;;;2.21;81.82;99727.25;226790;1273;22552;-74
2024/01/23 22:50:00;;;;;;;25.80;11.00;;;;;;;2.21;81.78;99706.94;226983;1268;22916;-74
2024/01/23 22:55:03;;;;;;;23.60;10.10;;;;;;;2.19;81.73;99694.77;226874;1271;24271;-75
2024/01/23 23:00:10;;;;;;;23.90;9.90;;;;;;;2.17;81.83;99700.84;226880;1274;22546;-75
2024/01/23 23:05:13;;;;;;;21.80;9.00;;;;;;;2.12;81.73;99705.83;226881;1268;22546;-74
2024/01/23 23:10:15;;;;;;;22.30;9.10;;;;;;;2.09;81.89;99691.42;226793;1274;22551;-75
2024/01/23 23:15:17;;;;;;;22.20;8.90;;;;;;;2.05;81.79;99688.98;226772;1273;22551;-74